Time;durP1;ratioP1;P1;durP2;ratioP2;P2;SDS_P1;SDS_P2;PMS_P1;PMS_P2;Temp;Humidity;BMP_temperature;BMP_pressure;BME280_temperature;BME280_humidity;BME280_pressure;Samples;Min_cycle;Max_cycle;Signal;HPM_P1;HPM_P2
2021/09/14 00:02:24;;;;;;;10.82;3.10;;;;;;;24.24;43.87;100789.31;4437798;32;20486;-69
2021/09/14 00:04:50;;;;;;;6.32;3.15;;;;;;;24.17;43.81;100784.88;4438232;32;20416;-69
2021/09/14 00:07:16;;;;;;;9.20;3.08;;;;;;;23.92;44.17;100786.03;4426552;32;20414;-69
2021/09/14 00:09:41;;;;;;;6.53;2.83;;;;;;;23.88;44.03;100785.53;4440348;32;20033;-69
2021/09/14 00:12:07;;;;;;;6.18;2.85;;;;;;;23.99;43.82;100788.38;4439673;32;20026;-69
2021/09/14 00:14:33;;;;;;;6.78;3.00;;;;;;;23.74;44.37;100788.75;4437761;32;20207;-69
2021/09/14 00:16:59;;;;;;;7.03;2.95;;;;;;;23.89;43.89;100786.31;4437267;32;20384;-69
2021/09/14 00:19:25;;;;;;;5.53;2.55;;;;;;;23.89;44.16;100787.09;4437151;32;20163;-69
2021/09/14 00:21:51;;;;;;;6.90;2.85;;;;;;;23.81;44.08;100780.38;4438718;32;20440;-69
2021/09/14 00:24:16;;;;;;;6.62;2.85;;;;;;;23.99;43.75;100776.88;4439443;32;20516;-69
2021/09/14 00:26:42;;;;;;;6.80;2.87;;;;;;;24.16;43.55;100776.78;4437834;32;20774;-69
2021/09/14 00:29:07;;;;;;;9.43;2.42;;;;;;;24.09;43.57;100775.28;4438571;32;20495;-69
2021/09/14 00:31:33;;;;;;;7.68;2.87;;;;;;;24.12;43.40;100774.22;4438281;32;20025;-69
2021/09/14 00:33:59;;;;;;;11.00;3.17;;;;;;;24.39;42.77;100772.47;4439142;32;20090;-69
2021/09/14 00:36:25;;;;;;;5.78;2.95;;;;;;;24.09;43.50;100768.75;4440852;32;20410;-69
2021/09/14 00:38:50;;;;;;;7.45;2.47;;;;;;;24.20;43.12;100775.19;4440255;32;20107;-69
2021/09/14 00:41:16;;;;;;;6.43;2.80;;;;;;;24.28;42.92;100767.56;4441917;32;20128;-69
2021/09/14 00:43:41;;;;;;;7.90;2.58;;;;;;;23.98;43.63;100766.69;4439409;32;20784;-69
2021/09/14 00:46:07;;;;;;;7.60;2.40;;;;;;;24.02;43.53;100766.44;4440784;32;20063;-68
2021/09/14 00:48:33;;;;;;;7.57;2.30;;;;;;;24.02;43.46;100764.31;4439840;32;20077;-69
2021/09/14 00:50:59;;;;;;;9.18;3.05;;;;;;;24.06;43.36;100761.16;4439527;32;20076;-69
2021/09/14 00:53:26;;;;;;;9.90;2.78;;;;;;;24.24;43.27;100752.69;4438854;32;20550;-69
2021/09/14 00:55:55;;;;;;;7.72;2.75;;;;;;;24.43;42.97;100753.59;4439343;32;20562;-69
2021/09/14 00:58:21;;;;;;;5.57;2.70;;;;;;;24.43;42.93;100749.94;4438301;32;20060;-69
2021/09/14 01:00:47;;;;;;;5.00;2.75;;;;;;;24.20;43.21;100755.06;4440134;32;20141;-69
2021/09/14 01:03:13;;;;;;;7.97;2.95;;;;;;;24.18;43.09;100742.53;4437048;32;20080;-69
2021/09/14 01:05:38;;;;;;;6.18;3.00;;;;;;;24.20;42.86;100746.44;4438186;32;20056;-69
2021/09/14 01:08:06;;;;;;;11.45;2.95;;;;;;;24.07;43.28;100743.38;4439166;32;20185;-69
2021/09/14 01:10:32;;;;;;;5.70;2.80;;;;;;;24.22;43.11;100740.16;4441879;32;20100;-69
2021/09/14 01:12:57;;;;;;;7.30;3.03;;;;;;;23.91;43.53;100741.38;4438222;32;20131;-69
2021/09/14 01:15:24;;;;;;;6.47;2.85;;;;;;;23.84;43.70;100739.03;4436057;32;20034;-69
2021/09/14 01:17:50;;;;;;;11.50;3.28;;;;;;;23.77;43.65;100735.97;4437242;32;20065;-69
2021/09/14 01:20:16;;;;;;;7.30;3.00;;;;;;;23.80;43.80;100741.41;4438600;32;20044;-69
2021/09/14 01:22:45;;;;;;;4.87;2.78;;;;;;;23.64;44.25;100733.66;4436709;32;20092;-69
2021/09/14 01:25:19;;;;;;;9.90;3.22;;;;;;;23.65;44.17;100723.72;4435792;32;20362;-69
2021/09/14 01:27:45;;;;;;;9.30;3.08;;;;;;;23.84;43.88;100723.91;4435545;32;21664;-69
2021/09/14 01:30:13;;;;;;;10.98;3.25;;;;;;;23.56;44.60;100721.16;4437748;32;20103;-69
2021/09/14 01:32:43;;;;;;;7.72;2.87;;;;;;;23.67;44.47;100717.44;4437794;32;20107;-69
2021/09/14 01:37:45;;;;;;;9.37;3.13;;;;;;;23.95;44.08;100713.16;3951116;32;15840526;-70
2021/09/14 01:40:11;;;;;;;8.75;3.25;;;;;;;23.95;44.08;100713.16;4436253;32;20046;-69
2021/09/14 01:42:38;;;;;;;7.20;2.83;;;;;;;23.59;44.28;100707.84;4432575;32;20426;-69
2021/09/14 01:45:07;;;;;;;6.97;3.03;;;;;;;23.68;44.36;100704.66;4418491;32;20081;-69
2021/09/14 01:47:34;;;;;;;8.02;2.75;;;;;;;23.51;44.74;100696.12;4430718;32;20468;-69
2021/09/14 01:50:00;;;;;;;12.52;3.20;;;;;;;23.59;44.36;100713.59;4429058;32;20092;-69
2021/09/14 01:52:27;;;;;;;5.65;2.45;;;;;;;23.48;44.61;100712.31;4431649;32;20430;-69
2021/09/14 01:54:54;;;;;;;9.07;3.22;;;;;;;23.54;44.62;100712.31;4433076;32;20166;-69
2021/09/14 01:57:23;;;;;;;8.85;3.17;;;;;;;23.47;44.63;100712.84;4433653;32;20045;-69
2021/09/14 01:59:52;;;;;;;10.10;3.00;;;;;;;23.52;44.69;100717.78;4432875;32;20101;-69
2021/09/14 02:02:31;;;;;;;9.82;3.20;;;;;;;23.55;44.59;100710.97;4436334;32;20346;-69
2021/09/14 02:05:05;;;;;;;13.00;3.30;;;;;;;23.61;44.40;100708.88;4433607;32;20021;-69
2021/09/14 02:43:25;;;;;;;7.90;3.97;;;;;;;24.32;44.17;100663.72;3983141;32;15025774;-69
2021/09/14 02:59:44;;;;;;;13.32;5.07;;;;;;;23.74;45.14;100657.31;3999760;31;15016955;-69
2021/09/14 03:02:10;;;;;;;10.65;4.25;;;;;;;23.65;45.51;100640.41;4453964;32;20059;-69
2021/09/14 03:04:35;;;;;;;12.98;4.20;;;;;;;23.72;45.45;100647.69;4458521;32;20064;-69
2021/09/14 03:07:01;;;;;;;19.65;4.70;;;;;;;23.73;45.47;100643.50;4457168;32;20106;-69
2021/09/14 03:09:27;;;;;;;9.05;4.12;;;;;;;23.68;45.61;100639.34;4456855;32;20077;-69
2021/09/14 03:11:53;;;;;;;11.20;4.30;;;;;;;23.67;45.54;100634.91;4456201;32;20059;-69
2021/09/14 03:14:19;;;;;;;12.15;4.65;;;;;;;23.79;45.14;100641.38;4454516;32;20029;-69
2021/09/14 03:16:45;;;;;;;10.52;4.97;;;;;;;23.84;45.22;100632.69;4459465;32;20037;-69
2021/09/14 03:19:10;;;;;;;11.68;4.97;;;;;;;23.71;45.32;100635.41;4458179;32;20343;-69
2021/09/14 03:21:36;;;;;;;10.48;4.47;;;;;;;23.68;45.45;100629.97;4457099;32;20041;-69
2021/09/14 03:24:02;;;;;;;13.48;4.72;;;;;;;23.01;46.92;100632.34;4457060;32;20021;-69
2021/09/14 03:26:27;;;;;;;10.80;5.07;;;;;;;23.52;45.95;100631.59;4456070;32;20140;-69
2021/09/14 03:28:53;;;;;;;12.35;5.37;;;;;;;23.41;46.29;100635.31;4452643;32;20561;-69
2021/09/14 03:31:19;;;;;;;15.10;6.78;;;;;;;23.63;45.96;100622.94;4454057;32;20555;-69
2021/09/14 03:33:45;;;;;;;12.45;7.10;;;;;;;23.78;45.51;100628.31;4456680;32;20139;-69
2021/09/14 03:36:11;;;;;;;14.80;6.90;;;;;;;23.92;45.17;100627.94;4451126;32;20506;-69
2021/09/14 03:38:36;;;;;;;12.63;6.37;;;;;;;23.81;45.27;100625.16;4456172;32;20037;-69
2021/09/14 03:41:02;;;;;;;11.93;5.87;;;;;;;23.84;45.35;100624.06;4459384;32;20098;-69
2021/09/14 03:43:28;;;;;;;17.08;5.90;;;;;;;23.73;45.19;100624.16;4450814;32;20169;-69
2021/09/14 03:45:54;;;;;;;17.70;6.47;;;;;;;23.83;45.37;100616.78;4460514;32;20077;-69
2021/09/14 03:48:19;;;;;;;12.90;5.80;;;;;;;23.72;45.58;100616.87;4460913;32;20103;-69
2021/09/14 03:50:47;;;;;;;14.45;6.10;;;;;;;24.03;45.25;100616.41;4455122;32;20452;-69
2021/09/14 03:53:13;;;;;;;13.05;5.10;;;;;;;24.04;45.25;100614.28;4458273;32;20116;-69
2021/09/14 03:55:40;;;;;;;14.40;5.37;;;;;;;24.02;45.16;100617.69;4451516;32;20470;-69
2021/09/14 03:58:09;;;;;;;13.62;5.53;;;;;;;24.08;45.15;100612.69;4454519;32;20256;-69
2021/09/14 04:00:34;;;;;;;12.52;5.30;;;;;;;23.71;45.27;100612.41;4453472;32;20037;-69
2021/09/14 04:03:07;;;;;;;12.37;5.15;;;;;;;24.07;45.15;100616.87;4457651;32;20159;-69
2021/09/14 04:11:00;;;;;;;15.50;5.62;;;;;;;24.53;44.35;100619.59;3971693;32;15026521;-68
2021/09/14 04:13:25;;;;;;;13.73;5.55;;;;;;;24.53;44.35;100619.59;4424595;32;20056;-68
2021/09/14 04:15:51;;;;;;;11.65;6.03;;;;;;;24.15;44.70;100611.34;4425094;32;20074;-68
2021/09/14 04:18:18;;;;;;;14.48;5.95;;;;;;;24.14;44.69;100613.41;4424065;32;20134;-70
2021/09/14 04:20:44;;;;;;;14.43;6.55;;;;;;;24.02;44.85;100616.94;4424837;32;20093;-68
2021/09/14 04:23:09;;;;;;;15.35;6.05;;;;;;;24.08;44.56;100606.16;4421389;32;20042;-68
2021/09/14 04:25:35;;;;;;;10.93;5.60;;;;;;;23.89;45.01;100602.34;4424241;32;20524;-68
2021/09/14 04:28:01;;;;;;;17.37;6.68;;;;;;;23.97;45.00;100604.16;4424612;32;20093;-68
2021/09/14 04:30:26;;;;;;;11.38;6.20;;;;;;;23.80;45.33;100606.34;4423892;32;20144;-68
2021/09/14 04:32:52;;;;;;;13.30;6.18;;;;;;;23.90;45.04;100609.69;4422151;32;20120;-68
2021/09/14 04:35:18;;;;;;;13.70;6.40;;;;;;;23.95;45.17;100608.88;4423530;32;20088;-68
2021/09/14 04:37:43;;;;;;;15.80;6.70;;;;;;;24.04;44.80;100603.59;4422697;32;20466;-68
2021/09/14 04:40:10;;;;;;;15.88;6.95;;;;;;;24.15;44.52;100596.97;4421230;32;20034;-68
2021/09/14 04:42:35;;;;;;;16.23;6.97;;;;;;;24.10;44.62;100592.03;4422448;32;20151;-68
2021/09/14 04:45:01;;;;;;;16.33;7.37;;;;;;;24.05;44.50;100593.63;4421718;32;20097;-68
2021/09/14 04:47:28;;;;;;;14.35;6.85;;;;;;;24.06;44.65;100597.28;4424133;32;20431;-68
2021/09/14 04:49:53;;;;;;;14.87;7.18;;;;;;;23.87;44.90;100594.25;4423606;32;20198;-68
2021/09/14 04:52:19;;;;;;;14.90;6.75;;;;;;;23.88;44.92;100595.06;4424653;32;20026;-68
2021/09/14 04:54:45;;;;;;;20.40;7.07;;;;;;;23.95;44.79;100606.00;4416785;32;20045;-68
2021/09/14 04:57:11;;;;;;;22.23;6.68;;;;;;;23.93;44.72;100608.62;4426351;32;20073;-68
2021/09/14 04:59:37;;;;;;;15.23;6.43;;;;;;;23.88;44.98;100607.34;4424424;32;20137;-68
2021/09/14 05:02:03;;;;;;;14.77;6.07;;;;;;;23.87;44.85;100605.00;4421301;32;20138;-68
2021/09/14 05:04:29;;;;;;;13.50;5.78;;;;;;;24.08;44.70;100609.81;4425511;32;20030;-68
2021/09/14 05:06:54;;;;;;;13.68;6.68;;;;;;;23.94;44.99;100610.94;4424420;32;20095;-68
2021/09/14 05:09:20;;;;;;;11.70;4.70;;;;;;;23.91;45.02;100599.72;4424043;32;20409;-68
2021/09/14 05:11:46;;;;;;;14.82;5.60;;;;;;;24.19;44.21;100603.97;4424184;32;20128;-68
2021/09/14 05:14:12;;;;;;;12.07;5.68;;;;;;;24.06;44.48;100600.97;4423095;32;20457;-68
2021/09/14 05:16:38;;;;;;;14.00;5.50;;;;;;;24.14;44.32;100601.16;4423596;32;20105;-68
2021/09/14 05:19:04;;;;;;;11.70;5.30;;;;;;;24.12;44.33;100598.81;4422806;32;20107;-68
2021/09/14 05:21:31;;;;;;;14.15;5.68;;;;;;;24.12;44.32;100593.06;4415171;32;20070;-68
2021/09/14 05:23:58;;;;;;;14.35;5.32;;;;;;;24.19;44.19;100594.56;4410257;32;20026;-68
2021/09/14 05:26:26;;;;;;;12.65;4.85;;;;;;;24.10;44.18;100592.03;4422997;32;20107;-68
2021/09/14 05:28:51;;;;;;;10.50;5.07;;;;;;;24.11;44.45;100591.50;4412157;32;20123;-68
2021/09/14 05:31:17;;;;;;;14.55;5.90;;;;;;;24.01;44.80;100587.41;4414086;32;20371;-68
2021/09/14 05:33:45;;;;;;;17.90;5.80;;;;;;;24.08;44.54;100591.78;4414957;32;20627;-68
2021/09/14 05:36:12;;;;;;;13.55;5.72;;;;;;;24.07;44.56;100596.75;4412407;32;20542;-68
2021/09/14 05:38:37;;;;;;;13.68;5.90;;;;;;;24.21;44.16;100595.56;4413781;32;20030;-68
2021/09/14 05:41:03;;;;;;;16.58;6.70;;;;;;;24.22;44.13;100599.25;4411248;32;20100;-68
2021/09/14 05:43:29;;;;;;;19.23;6.70;;;;;;;24.28;44.06;100600.75;4412257;32;20030;-68
2021/09/14 05:45:56;;;;;;;19.10;7.03;;;;;;;24.33;44.15;100605.66;4408353;32;20372;-68
2021/09/14 05:48:21;;;;;;;20.27;7.35;;;;;;;24.26;44.23;100600.50;4411831;32;20419;-68
2021/09/14 05:50:47;;;;;;;20.12;7.12;;;;;;;24.39;43.91;100592.00;4410958;32;20034;-68
2021/09/14 05:53:13;;;;;;;15.25;7.30;;;;;;;24.48;43.66;100590.91;4410756;32;20074;-68
2021/09/14 05:55:39;;;;;;;21.85;8.57;;;;;;;24.32;43.97;100589.72;4415071;32;20095;-68
2021/09/14 05:58:06;;;;;;;19.83;8.30;;;;;;;24.35;43.99;100587.88;4413928;32;20104;-68
2021/09/14 06:00:33;;;;;;;18.85;6.85;;;;;;;24.48;43.68;100594.53;4409975;32;20033;-68
2021/09/14 06:02:59;;;;;;;20.15;8.27;;;;;;;24.42;43.72;100593.81;4410998;32;20763;-68
2021/09/14 06:05:25;;;;;;;20.80;8.30;;;;;;;24.37;43.85;100596.75;4412129;32;20040;-68
2021/09/14 06:07:50;;;;;;;16.92;7.45;;;;;;;24.50;43.66;100586.16;4412390;32;20438;-68
2021/09/14 06:10:17;;;;;;;18.73;8.30;;;;;;;24.47;43.68;100590.09;4411450;32;20391;-68
2021/09/14 06:12:43;;;;;;;14.30;7.47;;;;;;;24.54;43.47;100606.75;4408354;32;20460;-68
2021/09/14 06:15:09;;;;;;;12.37;6.93;;;;;;;24.53;43.49;100601.53;4412150;32;20089;-68
2021/09/14 06:17:36;;;;;;;19.40;8.02;;;;;;;24.65;43.21;100605.91;4411888;32;20014;-68
2021/09/14 06:20:02;;;;;;;17.37;7.18;;;;;;;24.51;43.56;100604.19;4408290;32;20025;-68
2021/09/14 06:22:28;;;;;;;16.08;7.10;;;;;;;24.58;43.49;100612.22;4410513;32;20022;-68
2021/09/14 06:24:53;;;;;;;19.90;7.32;;;;;;;24.58;43.35;100607.22;4412755;32;20482;-69
2021/09/14 06:27:19;;;;;;;14.85;6.43;;;;;;;24.53;43.38;100605.22;4408203;32;20493;-68
2021/09/14 06:29:45;;;;;;;13.45;6.80;;;;;;;24.48;43.51;100605.28;4404032;32;20469;-68
2021/09/14 06:32:11;;;;;;;16.02;6.87;;;;;;;24.51;43.33;100604.19;4405907;32;21207;-68
2021/09/14 06:34:37;;;;;;;12.93;6.72;;;;;;;24.53;43.29;100602.34;4411406;32;20433;-68
2021/09/14 06:37:06;;;;;;;14.30;5.97;;;;;;;24.50;43.39;100599.75;4404749;32;20042;-68
2021/09/14 06:39:32;;;;;;;18.15;7.37;;;;;;;24.70;43.08;100602.94;4401538;32;20234;-69
2021/09/14 06:41:58;;;;;;;18.17;7.07;;;;;;;24.46;43.47;100602.16;4411346;32;20081;-68
2021/09/14 06:44:23;;;;;;;26.23;8.32;;;;;;;24.40;43.50;100613.72;4409854;32;20103;-69
2021/09/14 06:46:50;;;;;;;20.15;7.72;;;;;;;24.45;43.57;100604.25;4405232;32;20072;-70
2021/09/14 06:49:18;;;;;;;16.50;8.07;;;;;;;24.52;43.35;100606.53;4403033;32;20045;-69
2021/09/14 06:51:44;;;;;;;16.45;7.53;;;;;;;24.55;43.54;100610.44;4399393;32;20081;-70
2021/09/14 06:54:10;;;;;;;16.12;8.20;;;;;;;24.34;43.70;100610.13;4393914;32;20128;-70
2021/09/14 06:56:36;;;;;;;16.20;7.53;;;;;;;24.57;43.30;100611.44;4389302;32;20104;-70
2021/09/14 06:59:04;;;;;;;16.20;7.72;;;;;;;24.26;43.68;100616.97;4394764;32;20069;-70
2021/09/14 07:01:30;;;;;;;18.35;7.22;;;;;;;24.35;43.53;100611.66;4389257;32;20185;-70
2021/09/14 07:03:56;;;;;;;19.08;7.28;;;;;;;24.08;44.34;100621.31;4390788;32;20057;-70
2021/09/14 07:06:22;;;;;;;15.20;6.70;;;;;;;24.25;44.03;100616.22;4394081;32;20547;-70
2021/09/14 07:08:48;;;;;;;13.90;6.35;;;;;;;24.40;43.68;100633.84;4394119;32;20082;-70
2021/09/14 07:11:14;;;;;;;17.87;7.18;;;;;;;24.18;43.74;100625.44;4391102;32;20121;-70
2021/09/14 07:13:41;;;;;;;16.27;7.93;;;;;;;24.48;43.56;100629.06;4392417;32;20073;-70
2021/09/14 07:16:07;;;;;;;21.67;7.30;;;;;;;24.50;43.52;100628.50;4397307;32;20158;-70
2021/09/14 07:18:33;;;;;;;19.95;7.20;;;;;;;24.60;43.29;100626.84;4391833;32;20373;-70
2021/09/14 07:20:59;;;;;;;27.92;7.70;;;;;;;24.66;43.08;100630.47;4390817;32;20082;-70
2021/09/14 07:23:25;;;;;;;26.62;9.18;;;;;;;24.73;42.90;100636.41;4396606;32;20733;-70
2021/09/14 07:25:51;;;;;;;24.80;8.63;;;;;;;24.68;42.88;100633.59;4393698;32;20167;-70
2021/09/14 07:28:17;;;;;;;21.92;7.35;;;;;;;24.59;43.40;100636.81;4393986;32;20183;-70
2021/09/14 07:30:43;;;;;;;19.17;7.85;;;;;;;24.22;43.80;100634.53;4394789;32;20093;-70
2021/09/14 07:33:09;;;;;;;26.52;7.75;;;;;;;24.49;43.57;100632.72;4394730;32;20150;-70
2021/09/14 07:35:36;;;;;;;17.77;7.47;;;;;;;24.64;43.23;100631.00;4394411;32;20081;-70
2021/09/14 07:38:02;;;;;;;20.95;8.57;;;;;;;24.68;43.26;100627.84;4392198;32;20105;-70
2021/09/14 07:40:28;;;;;;;15.30;7.35;;;;;;;24.71;43.31;100621.81;4396904;32;20119;-70
2021/09/14 07:42:54;;;;;;;20.52;8.32;;;;;;;24.64;43.28;100615.81;4394092;32;20085;-70
2021/09/14 07:45:21;;;;;;;18.12;7.25;;;;;;;24.66;42.79;100622.63;4396477;32;20181;-70
2021/09/14 07:47:46;;;;;;;16.62;7.62;;;;;;;24.75;42.93;100610.75;4393881;32;20158;-70
2021/09/14 07:50:13;;;;;;;18.15;8.15;;;;;;;24.73;43.03;100612.63;4392515;32;20073;-69
2021/09/14 07:52:38;;;;;;;18.60;8.38;;;;;;;24.85;42.96;100603.31;4391213;32;20208;-68
2021/09/14 07:55:05;;;;;;;21.87;8.52;;;;;;;24.84;42.83;100607.50;4394189;32;20538;-69
2021/09/14 07:57:31;;;;;;;17.70;8.07;;;;;;;24.62;43.51;100599.09;4396193;32;20451;-69
2021/09/14 07:59:56;;;;;;;23.77;8.43;;;;;;;24.76;43.90;100603.66;4398999;32;20137;-68
2021/09/14 08:02:23;;;;;;;20.00;8.73;;;;;;;24.53;44.93;100595.78;4397802;32;20638;-69
2021/09/14 08:04:49;;;;;;;25.15;7.82;;;;;;;24.79;46.15;100598.94;4397291;32;20449;-69
2021/09/14 08:07:15;;;;;;;17.55;8.18;;;;;;;24.76;46.69;100588.53;4395897;32;20100;-68
2021/09/14 08:09:40;;;;;;;21.10;8.45;;;;;;;24.40;46.09;100589.91;4393619;32;20181;-69
2021/09/14 08:12:06;;;;;;;26.87;9.13;;;;;;;24.64;46.33;100582.09;4395392;32;21071;-69
2021/09/14 08:14:32;;;;;;;23.00;9.40;;;;;;;24.55;46.54;100581.66;4397428;32;20077;-69
2021/09/14 08:16:59;;;;;;;22.42;9.05;;;;;;;24.46;47.18;100587.75;4398956;32;20128;-69
2021/09/14 08:19:24;;;;;;;26.35;9.43;;;;;;;24.15;47.04;100586.25;4396207;32;20097;-69
2021/09/14 08:21:50;;;;;;;16.55;8.27;;;;;;;24.22;47.16;100587.72;4394728;32;20538;-69
2021/09/14 08:24:16;;;;;;;23.38;9.30;;;;;;;24.10;46.67;100583.41;4394521;32;20349;-69
2021/09/14 08:26:43;;;;;;;19.45;9.73;;;;;;;24.18;47.82;100582.28;4396934;32;20473;-69
2021/09/14 08:29:09;;;;;;;19.85;8.40;;;;;;;24.27;47.94;100581.91;4396335;32;20134;-69
2021/09/14 08:31:35;;;;;;;19.33;9.05;;;;;;;24.34;47.82;100581.34;4392672;32;20070;-68
2021/09/14 08:34:00;;;;;;;18.95;8.23;;;;;;;24.16;47.49;100584.12;4393513;32;20135;-69
2021/09/14 08:36:27;;;;;;;22.52;9.68;;;;;;;24.28;47.13;100580.63;4393055;32;20152;-69
2021/09/14 08:38:53;;;;;;;20.25;9.15;;;;;;;24.26;47.50;100579.59;4395764;32;20081;-69
2021/09/14 08:41:20;;;;;;;28.00;10.57;;;;;;;24.43;47.10;100571.59;4395088;32;20030;-69
2021/09/14 08:43:49;;;;;;;19.10;9.57;;;;;;;24.28;47.78;100572.00;4396509;32;20101;-69
2021/09/14 08:46:18;;;;;;;21.70;9.60;;;;;;;24.23;47.10;100575.69;4397636;32;20049;-69
2021/09/14 08:48:45;;;;;;;20.85;8.63;;;;;;;24.40;47.49;100576.31;4391113;32;20034;-69
2021/09/14 08:51:12;;;;;;;22.23;8.38;;;;;;;24.06;47.66;100577.16;4389885;32;20533;-69
2021/09/14 08:53:38;;;;;;;25.17;9.40;;;;;;;23.92;48.16;100575.41;4393238;32;20038;-69
2021/09/14 08:56:06;;;;;;;23.42;10.60;;;;;;;24.31;48.15;100570.13;4395631;32;20089;-69
2021/09/14 08:58:32;;;;;;;19.25;9.73;;;;;;;24.24;48.27;100576.47;4399545;32;20128;-69
2021/09/14 09:00:58;;;;;;;23.05;10.85;;;;;;;24.34;47.50;100575.59;4395147;32;21083;-69
2021/09/14 09:03:29;;;;;;;20.50;9.45;;;;;;;24.06;47.95;100572.22;4392263;32;20097;-69
2021/09/14 09:05:57;;;;;;;22.70;11.02;;;;;;;24.26;47.21;100565.19;4396820;32;20133;-69
2021/09/14 09:08:28;;;;;;;23.70;10.73;;;;;;;24.20;47.60;100573.91;4393471;32;20081;-69
2021/09/14 09:11:13;;;;;;;21.80;8.80;;;;;;;24.35;47.53;100571.41;4395253;32;20447;-69
2021/09/14 09:13:48;;;;;;;19.92;9.57;;;;;;;24.29;47.21;100567.78;4398532;32;20077;-68
2021/09/14 09:16:19;;;;;;;18.62;9.70;;;;;;;24.26;47.87;100566.00;4397717;32;20160;-68
2021/09/14 09:18:50;;;;;;;24.42;10.70;;;;;;;24.46;48.24;100565.53;4398432;32;20663;-69
2021/09/14 09:21:16;;;;;;;24.35;11.23;;;;;;;24.38;48.92;100555.16;4394629;32;20089;-68
2021/09/14 09:23:42;;;;;;;31.67;13.75;;;;;;;24.22;49.26;100565.53;4394891;32;20090;-68
2021/09/14 09:26:09;;;;;;;20.48;11.12;;;;;;;24.25;49.72;100561.56;4396706;32;20103;-68
2021/09/14 09:28:36;;;;;;;20.80;10.90;;;;;;;24.44;49.21;100550.91;4397195;32;20141;-68
2021/09/14 09:31:09;;;;;;;19.52;10.23;;;;;;;24.57;49.15;100545.25;4395184;32;20714;-68
2021/09/14 09:33:37;;;;;;;21.20;10.32;;;;;;;24.58;49.23;100538.19;4391852;32;20096;-69
2021/09/14 09:36:06;;;;;;;21.62;11.35;;;;;;;24.21;48.86;100552.44;4397001;32;20361;-68
2021/09/14 09:38:47;;;;;;;25.08;12.30;;;;;;;24.34;49.67;100543.97;4396548;32;20476;-68
2021/09/14 09:41:17;;;;;;;21.80;11.68;;;;;;;24.36;49.32;100549.16;4392250;32;20567;-68
2021/09/14 09:43:46;;;;;;;16.77;11.20;;;;;;;24.46;49.65;100551.16;4395032;32;20104;-68
2021/09/14 09:46:19;;;;;;;17.30;10.52;;;;;;;24.55;49.38;100539.28;4396910;32;20096;-67
2021/09/14 09:48:45;;;;;;;20.95;11.18;;;;;;;24.05;49.76;100544.75;4395193;32;20089;-67
2021/09/14 09:51:11;;;;;;;23.52;12.30;;;;;;;24.34;49.61;100546.03;4389369;32;20208;-68
2021/09/14 09:53:38;;;;;;;21.60;12.48;;;;;;;24.29;50.43;100555.50;4398197;32;20587;-66
2021/09/14 09:56:05;;;;;;;21.65;10.95;;;;;;;24.47;50.09;100549.81;4398583;32;20132;-68
2021/09/14 09:58:31;;;;;;;21.45;12.63;;;;;;;24.57;49.61;100555.97;4397927;32;20057;-66
2021/09/14 10:03:46;;;;;;;26.00;12.57;;;;;;;24.98;48.87;100556.56;3981659;31;15016673;-68
2021/09/14 10:06:37;;;;;;;22.35;12.43;;;;;;;24.98;48.87;100556.56;4440301;32;20381;-68
2021/09/14 10:09:29;;;;;;;23.17;12.07;;;;;;;24.42;49.13;100544.12;4439914;32;20105;-68
2021/09/14 10:12:23;;;;;;;22.05;10.27;;;;;;;24.27;49.75;100549.53;4440243;32;20090;-68
2021/09/14 10:15:13;;;;;;;21.30;10.85;;;;;;;24.54;49.42;100554.97;4436833;32;20095;-68
2021/09/14 10:17:57;;;;;;;19.50;9.90;;;;;;;24.44;49.31;100550.91;4439151;32;20189;-68
2021/09/14 10:20:43;;;;;;;23.98;12.00;;;;;;;24.31;49.46;100544.25;4438232;32;20127;-66
2021/09/14 10:23:34;;;;;;;21.23;11.32;;;;;;;24.43;49.94;100539.94;4440633;32;21127;-66
2021/09/14 10:26:20;;;;;;;21.10;11.68;;;;;;;24.75;49.25;100547.44;4441543;32;20119;-66
2021/09/14 10:29:13;;;;;;;;;;;;;;;24.60;49.55;100546.28;4439070;32;20064;-67
2021/09/14 10:32:06;;;;;;;19.87;12.27;;;;;;;24.54;49.32;100552.09;4440397;32;19994;-67
2021/09/14 10:34:33;;;;;;;20.58;11.63;;;;;;;24.58;49.75;100549.69;4438520;32;20164;-67
2021/09/14 10:37:07;;;;;;;16.23;10.80;;;;;;;23.91;50.74;100548.78;4429301;32;20102;-67
2021/09/14 10:39:36;;;;;;;17.77;9.95;;;;;;;24.30;50.28;100539.81;4439603;32;20088;-69
2021/09/14 10:42:13;;;;;;;15.18;9.40;;;;;;;23.91;50.29;100536.50;4436817;32;20409;-68
2021/09/14 10:44:39;;;;;;;15.10;9.50;;;;;;;24.19;50.54;100545.66;4438309;32;20100;-68
2021/09/14 10:52:40;;;;;;;11.95;9.07;;;;;;;24.96;49.17;100557.12;3984856;31;15014297;-69
2021/09/14 10:57:49;;;;;;;18.35;8.93;;;;;;;24.87;49.89;100550.94;3973751;31;15018090;-69
2021/09/14 11:00:17;;;;;;;13.15;8.75;;;;;;;24.87;49.89;100550.94;4427036;32;20076;-67
2021/09/14 11:02:54;;;;;;;15.75;10.20;;;;;;;24.46;50.63;100542.53;4425967;32;20160;-69
2021/09/14 11:05:20;;;;;;;16.87;9.38;;;;;;;24.41;50.72;100551.19;4420234;32;20049;-67
2021/09/14 11:07:45;;;;;;;21.10;10.73;;;;;;;24.29;50.64;100544.78;4423968;32;20500;-68
2021/09/14 11:10:19;;;;;;;18.70;10.77;;;;;;;24.22;51.09;100538.84;4424265;32;20068;-68
2021/09/14 11:12:46;;;;;;;16.27;9.02;;;;;;;24.43;50.85;100540.72;4425275;32;20502;-68
2021/09/14 11:15:12;;;;;;;11.40;8.20;;;;;;;24.30;50.85;100543.47;4423260;32;20094;-68
2021/09/14 11:17:37;;;;;;;12.23;8.40;;;;;;;24.42;50.39;100539.16;4411892;32;20762;-68
2021/09/14 11:20:10;;;;;;;12.88;7.72;;;;;;;24.34;50.03;100541.09;4427483;32;20175;-67
2021/09/14 11:22:38;;;;;;;12.55;8.63;;;;;;;24.56;50.02;100543.72;4425670;32;20064;-68
2021/09/14 11:25:10;;;;;;;16.77;8.43;;;;;;;24.37;50.45;100534.25;4427212;32;20148;-68
2021/09/14 11:27:36;;;;;;;14.07;9.10;;;;;;;24.48;50.44;100533.34;4427596;32;20494;-68
2021/09/14 11:30:02;;;;;;;13.98;8.82;;;;;;;24.32;49.99;100526.44;4425861;32;20148;-67
2021/09/14 11:32:28;;;;;;;13.77;8.38;;;;;;;24.51;50.41;100526.53;4425336;32;20154;-67
2021/09/14 11:34:56;;;;;;;14.02;8.68;;;;;;;24.52;50.66;100517.34;4428004;32;20578;-68
2021/09/14 11:37:30;;;;;;;20.15;9.55;;;;;;;24.43;49.68;100519.81;4425785;32;20105;-67
2021/09/14 11:39:57;;;;;;;17.70;10.07;;;;;;;24.67;49.68;100522.69;4423633;32;20056;-67
2021/09/14 11:42:25;;;;;;;20.27;9.15;;;;;;;24.63;50.79;100519.28;4422074;32;20092;-67
2021/09/14 11:45:07;;;;;;;13.27;8.80;;;;;;;24.65;50.55;100516.69;4426862;32;20072;-68
2021/09/14 11:47:42;;;;;;;14.82;9.73;;;;;;;24.72;49.60;100516.84;4426359;32;20116;-68
2021/09/14 11:50:09;;;;;;;16.20;10.10;;;;;;;24.78;49.76;100508.94;4422528;32;20122;-68
2021/09/14 11:53:16;;;;;;;20.05;10.68;;;;;;;24.65;50.50;100502.31;4423780;32;20113;-68
2021/09/14 11:56:11;;;;;;;21.37;11.45;;;;;;;24.83;49.87;100507.31;4424677;32;20163;-68
2021/09/14 11:58:55;;;;;;;23.08;12.18;;;;;;;24.70;49.31;100499.34;4426716;32;20477;-68
2021/09/14 12:01:29;;;;;;;21.30;13.18;;;;;;;24.43;49.88;100491.81;4423782;32;20092;-69
2021/09/14 12:03:56;;;;;;;21.67;13.38;;;;;;;25.01;49.49;100492.91;4425007;32;20074;-68
2021/09/14 12:06:27;;;;;;;21.08;14.13;;;;;;;24.98;50.12;100484.59;4425822;32;20069;-68
2021/09/14 12:08:56;;;;;;;19.75;11.77;;;;;;;25.36;49.69;100494.78;4415756;32;20076;-68
2021/09/14 12:11:27;;;;;;;18.55;12.73;;;;;;;25.42;49.41;100483.97;4415182;32;20094;-67
2021/09/14 12:16:39;;;;;;;18.00;10.48;;;;;;;25.75;47.96;100491.28;3970097;32;15023369;-69
2021/09/14 12:19:06;;;;;;;14.73;10.40;;;;;;;25.75;47.96;100491.28;4422383;32;20133;-69
2021/09/14 12:21:32;;;;;;;17.02;10.45;;;;;;;25.30;48.40;100486.22;4416727;32;20110;-68
2021/09/14 12:23:59;;;;;;;16.45;10.18;;;;;;;25.37;48.91;100496.34;4419340;32;20085;-69
2021/09/14 12:26:26;;;;;;;16.83;10.10;;;;;;;25.47;49.09;100488.06;4418113;32;20078;-67
2021/09/14 12:28:55;;;;;;;18.25;11.23;;;;;;;25.58;49.27;100491.53;4412164;32;20189;-68
2021/09/14 12:31:21;;;;;;;16.65;11.10;;;;;;;25.68;48.58;100486.16;4418554;32;20033;-67
2021/09/14 12:33:47;;;;;;;17.62;10.50;;;;;;;25.61;48.17;100478.16;4420160;32;20102;-67